createdAt,value
2016-11-28T09:19:32.030Z,24.32
2016-11-28T09:20:12.851Z,24.31
2016-11-28T09:20:53.675Z,24.32
2016-11-28T09:21:35.100Z,24.31
2016-11-28T09:22:15.361Z,24.35
2016-11-28T09:22:56.853Z,24.39
2016-11-28T09:23:37.644Z,24.42
2016-11-28T09:24:18.422Z,24.34
2016-11-28T09:24:59.256Z,24.4
2016-11-28T09:25:40.044Z,24.37
2016-11-28T09:26:20.996Z,24.39
2016-11-28T09:27:02.609Z,24.35
2016-11-28T09:27:42.522Z,24.37
2016-11-28T09:28:23.302Z,24.32
2016-11-28T09:29:04.103Z,24.4
2016-11-28T09:29:44.865Z,24.34
2016-11-28T09:30:25.671Z,24.35
2016-11-28T09:31:06.452Z,24.31
2016-11-28T09:31:48.103Z,24.37
2016-11-28T09:32:28.063Z,24.37
2016-11-28T09:33:08.858Z,24.31
2016-11-28T09:33:49.635Z,24.31
2016-11-28T09:34:30.436Z,24.31
2016-11-28T09:35:11.217Z,24.32
2016-11-28T09:35:52.034Z,24.37
2016-11-28T09:36:32.836Z,24.39
2016-11-28T09:37:13.629Z,24.39
2016-11-28T09:37:54.430Z,24.37
2016-11-28T09:38:35.191Z,24.34
2016-11-28T09:39:15.998Z,24.35
2016-11-28T09:39:56.757Z,24.37
2016-11-28T09:40:37.636Z,24.42
2016-11-28T09:41:18.511Z,24.37
2016-11-28T09:41:59.392Z,24.37
2016-11-28T09:42:40.851Z,24.37
2016-11-28T09:43:21.778Z,24.42
2016-11-28T09:44:02.581Z,24.42
2016-11-28T09:44:43.514Z,24.43
2016-11-28T09:45:24.902Z,24.43
2016-11-28T09:46:05.920Z,24.43
2016-11-28T09:46:46.576Z,24.4
2016-11-28T09:47:27.358Z,24.39
2016-11-28T09:48:09.117Z,24.42
2016-11-28T09:48:48.955Z,24.47
2016-11-28T09:49:29.743Z,24.47
2016-11-28T09:50:11.493Z,24.43
2016-11-28T09:50:52.274Z,24.45
2016-11-28T09:51:33.619Z,24.49
2016-11-28T09:52:13.927Z,24.47
2016-11-28T09:52:54.703Z,24.39
2016-11-28T09:53:35.474Z,24.4
2016-11-28T09:54:16.259Z,24.46
2016-11-28T09:54:57.040Z,24.43
2016-11-28T09:55:37.807Z,24.5
2016-11-28T09:56:20.130Z,24.4
2016-11-28T09:57:00.073Z,24.49
2016-11-28T09:57:41.405Z,24.5
2016-11-28T09:58:22.221Z,24.46
2016-11-28T09:59:03.039Z,24.42
2016-11-28T09:59:43.884Z,24.55
2016-11-28T10:00:25.624Z,24.49
2016-11-28T10:01:05.532Z,24.5
2016-11-28T10:01:47.112Z,24.46
2016-11-28T10:02:28.635Z,24.45
2016-11-28T10:03:09.479Z,24.49
2016-11-28T10:03:50.249Z,24.58
2016-11-28T10:04:31.020Z,24.5
2016-11-28T10:05:11.826Z,24.45
2016-11-28T10:05:52.589Z,24.5
2016-11-28T10:06:34.123Z,24.47
2016-11-28T10:07:15.153Z,24.55
2016-11-28T10:07:55.231Z,24.47
2016-11-28T10:08:36.073Z,24.49
2016-11-28T10:09:16.824Z,24.49
2016-11-28T10:09:57.583Z,24.52
2016-11-28T10:10:38.362Z,24.49
2016-11-28T10:11:19.166Z,24.55
2016-11-28T10:11:59.931Z,24.47
2016-11-28T10:12:40.710Z,24.53
2016-11-28T10:13:22.126Z,24.52
2016-11-28T10:14:02.299Z,24.58
2016-11-28T10:14:43.078Z,24.6
2016-11-28T10:15:23.857Z,24.52
2016-11-28T10:16:04.672Z,24.55
2016-11-28T10:16:45.415Z,24.52
2016-11-28T10:17:26.209Z,24.61
2016-11-28T10:18:06.972Z,24.58
2016-11-28T10:18:47.818Z,24.64
2016-11-28T10:19:29.367Z,24.52
2016-11-28T10:20:10.132Z,24.57
2016-11-28T10:20:51.902Z,24.6
2016-11-28T10:21:32.663Z,24.64
2016-11-28T10:22:14.131Z,24.57
2016-11-28T10:22:54.253Z,24.5
2016-11-28T10:23:35.053Z,24.53
2016-11-28T10:24:16.763Z,24.58
2016-11-28T10:24:57.506Z,24.58
2016-11-28T10:25:38.337Z,24.64
2016-11-28T10:26:20.635Z,24.55
2016-11-28T10:27:02.199Z,24.61
2016-11-28T10:27:43.006Z,24.57
2016-11-28T10:28:25.146Z,24.64
2016-11-28T10:29:05.234Z,24.65
2016-11-28T10:29:46.684Z,24.61
2016-11-28T10:30:27.503Z,24.68
2016-11-28T10:31:08.358Z,24.62
2016-11-28T10:31:49.178Z,24.68
2016-11-28T10:32:30.993Z,24.67
2016-11-28T10:33:12.658Z,24.65
2016-11-28T10:33:53.443Z,24.64
2016-11-28T10:34:35.180Z,24.64
2016-11-28T10:35:15.960Z,24.67
2016-11-28T10:35:56.817Z,24.62
2016-11-28T10:36:37.574Z,24.65
2016-11-28T10:37:18.387Z,24.64
2016-11-28T10:37:59.194Z,24.68
2016-11-28T10:38:40.014Z,24.65
2016-11-28T10:39:22.648Z,24.64
2016-11-28T10:40:03.146Z,24.58
2016-11-28T10:40:43.270Z,24.62
2016-11-28T10:41:24.096Z,24.62
2016-11-28T10:42:04.923Z,24.61
2016-11-28T10:42:46.641Z,24.64
2016-11-28T10:43:26.770Z,24.61
2016-11-28T10:44:07.608Z,24.61
2016-11-28T10:44:48.394Z,24.68
2016-11-28T10:45:29.184Z,24.57
2016-11-28T10:46:10.651Z,24.71
2016-11-28T10:46:50.735Z,24.71
2016-11-28T10:47:32.147Z,24.58
2016-11-28T10:48:12.267Z,24.64
2016-11-28T10:48:53.045Z,24.58
2016-11-28T10:49:34.657Z,24.65
2016-11-28T10:50:15.471Z,24.76
2016-11-28T10:50:56.336Z,24.71
2016-11-28T10:51:38.405Z,24.77
2016-11-28T10:52:19.241Z,24.8
2016-11-28T10:53:00.651Z,24.77
2016-11-28T10:53:41.657Z,24.76
2016-11-28T10:54:22.401Z,24.69
2016-11-28T10:55:03.906Z,24.73
2016-11-28T10:55:45.524Z,24.83
2016-11-28T10:56:26.361Z,24.77
2016-11-28T10:57:07.655Z,24.77
2016-11-28T10:57:47.937Z,24.78
2016-11-28T10:58:28.719Z,24.78
2016-11-28T10:59:09.503Z,24.83
2016-11-28T10:59:50.292Z,24.76
2016-11-28T11:00:31.657Z,24.78
2016-11-28T11:01:11.912Z,24.83
2016-11-28T11:01:53.655Z,24.78
2016-11-28T11:02:34.156Z,24.78
2016-11-28T11:03:14.338Z,24.77
2016-11-28T11:03:55.151Z,24.77
2016-11-28T11:04:36.654Z,24.81
2016-11-28T11:05:16.704Z,24.76
2016-11-28T11:05:57.501Z,24.77
2016-11-28T11:06:38.262Z,24.77
2016-11-28T11:07:19.036Z,24.76
2016-11-28T11:08:00.662Z,24.71
2016-11-28T11:08:41.217Z,24.71
2016-11-28T11:09:22.842Z,24.77
2016-11-28T11:10:04.153Z,24.77
2016-11-28T11:10:44.414Z,24.73
2016-11-28T11:11:25.778Z,24.73
2016-11-28T11:12:06.561Z,24.88
2016-11-28T11:12:47.342Z,24.76
2016-11-28T11:13:28.132Z,24.85
2016-11-28T11:14:08.903Z,24.76
2016-11-28T11:14:50.661Z,24.93
2016-11-28T11:15:31.176Z,24.85
2016-11-28T11:16:11.866Z,24.85
2016-11-28T11:16:53.667Z,24.78
2016-11-28T11:17:34.664Z,24.98
2016-11-28T11:18:15.402Z,24.93
2016-11-28T11:18:56.894Z,24.81
2016-11-28T11:19:38.175Z,24.9
2016-11-28T11:20:19.173Z,24.9
2016-11-28T11:20:59.383Z,24.84
2016-11-28T11:21:40.741Z,24.9
2016-11-28T11:22:21.550Z,24.95
2016-11-28T11:23:03.292Z,24.87
2016-11-28T11:23:44.128Z,24.84
2016-11-28T11:24:25.677Z,24.87
2016-11-28T11:25:06.665Z,24.88
2016-11-28T11:25:47.167Z,24.91
2016-11-28T11:26:28.316Z,24.9
2016-11-28T11:27:09.100Z,24.91
2016-11-28T11:27:49.916Z,24.85
2016-11-28T11:28:30.684Z,24.85
2016-11-28T11:29:11.481Z,24.93
2016-11-28T11:29:53.172Z,24.85
2016-11-28T11:30:33.746Z,24.83
2016-11-28T11:31:15.109Z,24.9
2016-11-28T11:31:56.905Z,24.9
2016-11-28T11:32:37.714Z,24.93
2016-11-28T11:33:18.477Z,24.93
2016-11-28T11:33:59.287Z,24.91
2016-11-28T11:34:40.134Z,24.9
2016-11-28T11:35:21.675Z,24.91
2016-11-28T11:36:02.183Z,24.95
2016-11-28T11:36:43.684Z,24.88
2016-11-28T11:37:24.194Z,24.88
2016-11-28T11:38:04.997Z,24.9
2016-11-28T11:38:45.768Z,24.95
2016-11-28T11:39:26.576Z,24.91
2016-11-28T11:40:08.174Z,24.96
2016-11-28T11:40:48.121Z,24.91
2016-11-28T11:41:28.918Z,25.02
2016-11-28T11:42:11.176Z,24.91
2016-11-28T11:42:51.372Z,24.98
2016-11-28T11:43:32.207Z,24.93
2016-11-28T11:44:14.680Z,24.88
2016-11-28T11:44:54.776Z,24.96
2016-11-28T11:45:36.189Z,24.91
2016-11-28T11:46:16.380Z,24.95
2016-11-28T11:46:58.179Z,24.96
2016-11-28T11:47:39.685Z,24.95
2016-11-28T11:48:19.698Z,24.96
2016-11-28T11:49:00.478Z,24.98
2016-11-28T11:49:41.263Z,24.95
2016-11-28T11:50:22.138Z,25
2016-11-28T11:51:02.950Z,24.96
2016-11-28T11:51:43.774Z,25.03
2016-11-28T11:52:24.550Z,24.95
2016-11-28T11:53:06.249Z,25
2016-11-28T11:53:47.883Z,25.08
2016-11-28T11:54:29.185Z,25.02
2016-11-28T11:55:10.185Z,24.99
2016-11-28T11:55:50.324Z,25.03
2016-11-28T11:56:31.118Z,25.05
2016-11-28T11:57:12.692Z,25.08
2016-11-28T11:57:53.693Z,25.03
2016-11-28T11:58:33.509Z,25.06
2016-11-28T11:59:15.198Z,25.02
2016-11-28T11:59:56.692Z,25.06
2016-11-28T12:00:37.618Z,25.02
2016-11-28T12:01:19.194Z,25.06
2016-11-28T12:01:59.225Z,25.03
2016-11-28T12:02:41.194Z,25.1
2016-11-28T12:03:23.194Z,25.08
2016-11-28T12:04:03.338Z,25.08
2016-11-28T12:04:44.689Z,25.06
2016-11-28T12:05:25.690Z,25.03
2016-11-28T12:06:05.808Z,25.13
2016-11-28T12:06:46.591Z,25.02
2016-11-28T12:07:27.900Z,25.09
2016-11-28T12:08:09.197Z,25.03
2016-11-28T12:08:50.043Z,25.05
2016-11-28T12:09:30.854Z,25.08
2016-11-28T12:10:13.694Z,25.03
2016-11-28T12:10:54.272Z,25.05
2016-11-28T12:11:36.461Z,25.05
2016-11-28T12:12:17.228Z,25
2016-11-28T12:12:57.990Z,25
2016-11-28T12:13:38.829Z,25.03
2016-11-28T12:14:20.451Z,25.08
2016-11-28T12:15:01.245Z,25.05
2016-11-28T12:15:43.218Z,25.08
2016-11-28T12:16:23.476Z,25.03
2016-11-28T12:17:05.216Z,25.06
2016-11-28T12:17:46.017Z,25.09
2016-11-28T12:18:26.799Z,25.08
2016-11-28T12:19:08.198Z,25.1
2016-11-28T12:19:49.707Z,25.09
2016-11-28T12:20:31.445Z,25.06
2016-11-28T12:21:12.250Z,25.13
2016-11-28T12:21:53.054Z,25.09
2016-11-28T12:22:34.707Z,25.09
2016-11-28T12:23:14.613Z,25.09
2016-11-28T12:23:56.202Z,25.05
2016-11-28T12:24:36.823Z,25.18
2016-11-28T12:25:18.234Z,25.18
2016-11-28T12:25:59.016Z,25.17
2016-11-28T12:26:39.768Z,25.09
2016-11-28T12:27:20.543Z,25.21
2016-11-28T12:28:01.354Z,25.13
2016-11-28T12:28:42.131Z,25.14
2016-11-28T12:29:22.924Z,25.14
2016-11-28T12:30:03.706Z,25.15
2016-11-28T12:30:44.471Z,25.17
2016-11-28T12:31:25.256Z,25.2
2016-11-28T12:32:06.010Z,25.2
2016-11-28T12:32:46.783Z,25.21
2016-11-28T12:33:27.548Z,25.21
2016-11-28T12:34:08.360Z,25.17
2016-11-28T12:34:49.124Z,25.14
2016-11-28T12:35:29.886Z,25.2
2016-11-28T12:36:10.673Z,25.23
2016-11-28T12:36:51.456Z,25.18
2016-11-28T12:37:32.239Z,25.3
2016-11-28T12:38:12.994Z,25.21
2016-11-28T12:38:53.743Z,25.23
2016-11-28T12:39:34.525Z,25.21
2016-11-28T12:40:15.294Z,25.18
2016-11-28T12:40:56.065Z,25.27
2016-11-28T12:41:36.858Z,25.24
2016-11-28T12:42:17.642Z,25.24
2016-11-28T12:42:58.429Z,25.25
2016-11-28T12:43:39.724Z,25.21
2016-11-28T12:44:20.033Z,25.17
2016-11-28T12:45:00.787Z,25.23
2016-11-28T12:45:41.591Z,25.27
2016-11-28T12:46:22.400Z,25.25
2016-11-28T12:47:03.245Z,25.21
2016-11-28T12:47:44.031Z,25.21
2016-11-28T12:48:24.868Z,25.17
2016-11-28T12:49:05.647Z,25.2
2016-11-28T12:49:46.449Z,25.25
2016-11-28T12:51:21.673Z,25.21
2016-11-28T12:52:03.720Z,25.24
2016-11-28T12:52:43.852Z,25.15
2016-11-28T12:53:24.606Z,25.21
2016-11-28T12:54:05.423Z,25.27
2016-11-28T12:54:46.181Z,25.21
2016-11-28T12:55:26.959Z,25.23
2016-11-28T12:56:07.741Z,25.2
2016-11-28T12:56:48.526Z,25.23
2016-11-28T12:57:29.284Z,25.25
2016-11-28T12:58:10.084Z,25.21
2016-11-28T12:58:51.721Z,25.24
2016-11-28T12:59:32.574Z,25.32
2016-11-28T13:00:13.330Z,25.33
2016-11-28T13:00:54.140Z,25.21
2016-11-28T13:01:34.954Z,25.33
2016-11-28T13:02:15.717Z,25.25
2016-11-28T13:02:56.514Z,25.27
2016-11-28T13:03:37.298Z,25.21
2016-11-28T13:04:18.058Z,25.25
2016-11-28T13:04:58.828Z,25.21
2016-11-28T13:05:39.615Z,25.25
2016-11-28T13:06:20.374Z,25.23
2016-11-28T13:07:01.951Z,25.25
2016-11-28T13:07:43.235Z,25.24
2016-11-28T13:08:24.734Z,25.17
2016-11-28T13:09:04.875Z,25.32
2016-11-28T13:09:45.659Z,25.24
2016-11-28T13:10:27.230Z,25.32
2016-11-28T13:11:07.194Z,25.27
2016-11-28T13:11:47.971Z,25.28
2016-11-28T13:12:28.725Z,25.24
2016-11-28T13:13:09.512Z,25.24
2016-11-28T13:13:50.326Z,25.17
2016-11-28T13:14:31.123Z,25.28
2016-11-28T13:15:11.887Z,25.28
2016-11-28T13:15:52.645Z,25.23
2016-11-28T13:16:33.417Z,25.25
2016-11-28T13:17:14.188Z,25.18
2016-11-28T13:17:54.958Z,25.23
2016-11-28T13:18:35.759Z,25.27
2016-11-28T13:19:16.523Z,25.35
2016-11-28T13:19:58.238Z,25.2
2016-11-28T13:20:38.856Z,25.25
2016-11-28T13:21:19.635Z,25.35
2016-11-28T13:22:00.393Z,25.21
2016-11-28T13:22:41.741Z,25.35
2016-11-28T13:23:21.912Z,25.28
2016-11-28T13:24:02.710Z,25.4
2016-11-28T13:24:43.488Z,25.35
2016-11-28T13:25:24.257Z,25.27
2016-11-28T13:26:05.003Z,25.32
2016-11-28T13:26:45.773Z,25.25
2016-11-28T13:27:26.557Z,25.25
2016-11-28T13:28:07.852Z,25.28
2016-11-28T13:28:48.638Z,25.3
2016-11-28T13:29:29.418Z,25.25
2016-11-28T13:30:10.244Z,25.2
2016-11-28T13:30:51.057Z,25.43
2016-11-28T13:31:31.812Z,25.25
2016-11-28T13:32:13.249Z,25.33
2016-11-28T13:32:53.361Z,25.39
2016-11-28T13:33:34.144Z,25.39
2016-11-28T13:34:14.901Z,25.25
2016-11-28T13:34:55.674Z,25.38
2016-11-28T13:35:36.432Z,25.38
2016-11-28T13:36:18.168Z,25.3
2016-11-28T13:36:59.750Z,25.35
2016-11-28T13:37:39.705Z,25.35
2016-11-28T13:38:20.504Z,25.35
2016-11-28T13:39:01.285Z,25.38
2016-11-28T13:39:42.050Z,25.35
2016-11-28T13:40:22.823Z,25.35
2016-11-28T13:41:03.601Z,25.39
2016-11-28T13:41:44.361Z,25.36
2016-11-28T13:42:25.117Z,25.43
2016-11-28T13:43:06.754Z,25.35
2016-11-28T13:43:47.263Z,25.3
2016-11-28T13:44:28.047Z,25.38
2016-11-28T13:45:08.841Z,25.36
2016-11-28T13:45:49.632Z,25.35
2016-11-28T13:46:30.378Z,25.38
2016-11-28T13:47:11.169Z,25.35
2016-11-28T13:47:51.932Z,25.39
2016-11-28T13:48:32.713Z,25.4
2016-11-28T13:49:13.510Z,25.46
2016-11-28T13:49:54.311Z,25.33
2016-11-28T13:50:35.068Z,25.32
2016-11-28T13:51:15.859Z,25.33
2016-11-28T13:51:56.631Z,25.32
2016-11-28T13:52:37.420Z,25.39
2016-11-28T13:53:18.209Z,25.33
2016-11-28T13:53:58.966Z,25.43
2016-11-28T13:54:39.775Z,25.35
2016-11-28T13:55:20.572Z,25.33
2016-11-28T13:56:01.345Z,25.39
2016-11-28T13:56:42.143Z,25.43
2016-11-28T13:57:22.919Z,25.45
2016-11-28T13:58:03.697Z,25.35
2016-11-28T13:58:44.482Z,25.39
2016-11-28T13:59:25.765Z,25.36
2016-11-28T14:00:06.029Z,25.46
2016-11-28T14:00:46.815Z,25.45
2016-11-28T14:01:27.546Z,25.42
2016-11-28T14:02:08.332Z,25.47
2016-11-28T14:02:49.144Z,25.47
2016-11-28T14:03:29.891Z,25.46
2016-11-28T14:04:10.691Z,25.42
2016-11-28T14:04:51.467Z,25.42
2016-11-28T14:05:32.225Z,25.45
2016-11-28T14:06:13.046Z,25.46
2016-11-28T14:06:53.893Z,25.47
2016-11-28T14:07:34.721Z,25.46
2016-11-28T14:08:15.523Z,25.5
2016-11-28T14:08:56.327Z,25.45
2016-11-28T14:09:37.090Z,25.45
2016-11-28T14:10:17.871Z,25.47
2016-11-28T14:10:58.673Z,25.5
2016-11-28T14:11:39.468Z,25.47
2016-11-28T14:12:20.235Z,25.47
2016-11-28T14:13:01.038Z,25.45
2016-11-28T14:13:41.827Z,25.4
2016-11-28T14:14:22.623Z,25.51
2016-11-28T14:15:03.420Z,25.46
2016-11-28T14:15:45.158Z,25.52
2016-11-28T14:16:26.767Z,25.5
2016-11-28T14:17:07.272Z,25.47
2016-11-28T14:17:48.775Z,25.54
2016-11-28T14:18:28.910Z,25.54
2016-11-28T14:19:09.671Z,25.47
2016-11-28T14:19:50.487Z,25.54
2016-11-28T14:20:31.253Z,25.51
2016-11-28T14:21:12.012Z,25.46
2016-11-28T14:21:52.822Z,25.47
2016-11-28T14:22:33.628Z,25.43
2016-11-28T14:23:15.271Z,25.43
2016-11-28T14:23:55.208Z,25.42
2016-11-28T14:24:35.983Z,25.52
2016-11-28T14:25:16.762Z,25.55
2016-11-28T14:25:57.528Z,25.54
2016-11-28T14:26:38.332Z,25.51
2016-11-28T14:27:20.014Z,25.55
2016-11-28T14:28:00.806Z,25.54
2016-11-28T14:28:42.286Z,25.54
2016-11-28T14:29:22.433Z,25.5
2016-11-28T14:30:03.196Z,25.54
2016-11-28T14:30:44.001Z,25.51
2016-11-28T14:31:24.792Z,25.51
2016-11-28T14:32:05.553Z,25.46
2016-11-28T14:32:47.072Z,25.51
2016-11-28T14:33:27.887Z,25.45
2016-11-28T14:34:08.700Z,25.47
2016-11-28T14:34:50.282Z,25.5
2016-11-28T14:35:30.295Z,25.54
2016-11-28T14:36:11.094Z,25.54
2016-11-28T14:36:52.546Z,25.51
2016-11-28T14:37:33.330Z,25.46
2016-11-28T14:38:14.122Z,25.5
2016-11-28T14:38:54.908Z,25.46
2016-11-28T14:39:35.811Z,25.58
2016-11-28T14:40:16.598Z,25.54
2016-11-28T14:40:58.284Z,25.52
2016-11-28T14:41:38.214Z,25.55
2016-11-28T14:42:19.012Z,25.55
2016-11-28T14:42:59.805Z,25.57
2016-11-28T14:43:40.600Z,25.54
2016-11-28T14:44:21.411Z,25.55
2016-11-28T14:45:02.151Z,25.52
2016-11-28T14:45:43.800Z,25.46
2016-11-28T14:46:23.739Z,25.57
2016-11-28T14:47:04.506Z,25.52
2016-11-28T14:47:45.285Z,25.51
2016-11-28T14:48:26.063Z,25.57
2016-11-28T14:49:06.834Z,25.55
2016-11-28T14:49:47.606Z,25.52
2016-11-28T14:50:28.402Z,25.54
2016-11-28T14:51:09.182Z,25.58
2016-11-28T14:51:49.960Z,25.51
2016-11-28T14:52:30.749Z,25.6
2016-11-28T14:53:11.491Z,25.58
2016-11-28T14:53:52.246Z,25.62
2016-11-28T14:54:33.025Z,25.6
2016-11-28T14:55:13.808Z,25.58
2016-11-28T14:55:54.566Z,25.62
2016-11-28T14:56:35.373Z,25.62
2016-11-28T14:57:16.141Z,25.67
2016-11-28T14:57:56.909Z,25.69
2016-11-28T14:58:37.700Z,25.62
2016-11-28T14:59:18.522Z,25.58
2016-11-28T14:59:59.331Z,25.58
2016-11-28T15:00:40.078Z,25.57
2016-11-28T15:01:20.887Z,25.52
2016-11-28T15:02:01.640Z,25.6
2016-11-28T15:02:42.442Z,25.55
2016-11-28T15:03:23.229Z,25.46
2016-11-28T15:04:03.999Z,25.52
2016-11-28T15:04:44.766Z,25.55
2016-11-28T15:05:25.561Z,25.46
2016-11-28T15:06:06.355Z,25.52
2016-11-28T15:06:47.117Z,25.36
2016-11-28T15:07:28.817Z,25.39
2016-11-28T15:08:08.666Z,25.32
2016-11-28T15:08:49.429Z,25.24
2016-11-28T15:09:30.205Z,25.21
2016-11-28T15:10:11.820Z,25.24
2016-11-28T15:10:51.801Z,25.21
2016-11-28T15:11:32.593Z,25.24
2016-11-28T15:12:13.386Z,25.21
2016-11-28T15:12:54.181Z,25.24
2016-11-28T15:13:35.813Z,25.3
2016-11-28T15:14:15.761Z,25.23
2016-11-28T15:14:56.550Z,25.17
2016-11-28T15:15:37.813Z,25.24
2016-11-28T15:16:18.078Z,25.25
2016-11-28T15:16:59.819Z,25.24
2016-11-28T15:17:40.808Z,25.15
2016-11-28T15:18:21.570Z,25.1
2016-11-28T15:19:02.366Z,25.18
2016-11-28T15:19:43.118Z,25.14
2016-11-28T15:20:23.928Z,25.13
2016-11-28T15:21:05.313Z,25.08
2016-11-28T15:21:45.454Z,25.14
2016-11-28T15:22:26.216Z,25.17
2016-11-28T15:23:07.004Z,25.1
2016-11-28T15:23:47.777Z,25.17
2016-11-28T15:24:28.538Z,25.2
2016-11-28T15:25:09.330Z,25.1
2016-11-28T15:25:50.129Z,25.17
2016-11-28T15:26:30.916Z,25.2
2016-11-28T15:27:11.709Z,25.2
2016-11-28T15:27:52.498Z,25.17
2016-11-28T15:28:33.284Z,25.2
2016-11-28T15:29:14.052Z,25.1
2016-11-28T15:29:55.325Z,25.14
2016-11-28T15:30:35.644Z,25.15
2016-11-28T15:31:17.823Z,25.15
2016-11-28T15:31:57.898Z,25.17
2016-11-28T15:32:38.694Z,25.14
2016-11-28T15:33:19.453Z,25.13
2016-11-28T15:34:01.034Z,25.17
2016-11-28T15:34:41.814Z,25.17
2016-11-28T15:35:22.609Z,25.06
2016-11-28T15:36:03.394Z,25.09
2016-11-28T15:36:44.149Z,25.05
2016-11-28T15:37:24.895Z,25.03
2016-11-28T15:38:05.682Z,25.1
2016-11-28T15:38:46.474Z,24.98
2016-11-28T15:39:27.251Z,24.96
2016-11-28T15:40:08.038Z,24.93
2016-11-28T15:40:48.827Z,24.95
2016-11-28T15:41:29.593Z,25
2016-11-28T15:42:10.404Z,25.02
2016-11-28T15:42:51.192Z,24.96
2016-11-28T15:43:33.324Z,24.91
2016-11-28T15:44:14.209Z,24.96
2016-11-28T15:44:55.011Z,24.96
2016-11-28T15:45:35.817Z,25
2016-11-28T15:46:16.574Z,24.96
2016-11-28T15:46:57.387Z,25.02
2016-11-28T15:47:38.881Z,24.98
2016-11-28T15:48:19.682Z,24.93
2016-11-28T15:49:01.336Z,24.96
2016-11-28T15:49:41.836Z,24.9
2016-11-28T15:50:22.059Z,24.9
2016-11-28T15:51:02.837Z,24.93
2016-11-28T15:51:44.356Z,24.91
2016-11-28T15:52:25.126Z,24.88
2016-11-28T15:53:05.941Z,24.9
2016-11-28T15:53:46.705Z,24.9
2016-11-28T15:54:27.507Z,24.9
2016-11-28T15:55:08.278Z,24.9
2016-11-28T15:55:49.093Z,24.93
2016-11-28T15:56:29.873Z,24.83
2016-11-28T15:57:10.657Z,24.93
2016-11-28T15:57:51.468Z,24.88
2016-11-28T15:58:32.264Z,24.9
2016-11-28T15:59:13.054Z,24.91
2016-11-28T15:59:53.842Z,24.9
2016-11-28T16:00:34.642Z,24.99
2016-11-28T16:01:15.465Z,24.96
2016-11-28T16:01:56.262Z,24.93
2016-11-28T16:02:37.177Z,24.91
2016-11-28T16:03:18.550Z,24.99
2016-11-28T16:03:59.348Z,24.93
2016-11-28T16:04:40.157Z,24.95
2016-11-28T16:05:20.951Z,24.88
2016-11-28T16:06:01.730Z,25.03
2016-11-28T16:06:43.332Z,25.02
2016-11-28T16:07:23.309Z,24.9
2016-11-28T16:08:04.833Z,24.95
2016-11-28T16:08:44.891Z,24.98
2016-11-28T16:09:26.333Z,24.95
2016-11-28T16:10:06.469Z,24.96
2016-11-28T16:10:47.265Z,25.02
2016-11-28T16:11:29.072Z,25
2016-11-28T16:12:10.342Z,24.95
2016-11-28T16:12:50.613Z,25.06
2016-11-28T16:13:31.436Z,25
2016-11-28T16:14:12.225Z,24.99
2016-11-28T16:14:53.005Z,25.05
2016-11-28T16:15:33.757Z,25.03
2016-11-28T16:16:14.532Z,24.98
2016-11-28T16:16:55.297Z,25
2016-11-28T16:17:36.094Z,24.98
2016-11-28T16:18:17.346Z,25.06
2016-11-28T16:18:57.687Z,24.98
2016-11-28T16:19:39.340Z,25.02
2016-11-28T16:20:19.222Z,24.98
2016-11-28T16:23:13.015Z,25
2016-11-28T16:23:53.789Z,25.03
2016-11-28T16:24:34.577Z,24.99
2016-11-28T16:25:15.354Z,24.95
2016-11-28T16:25:56.102Z,24.98
2016-11-28T16:26:36.888Z,24.93
2016-11-28T16:27:17.655Z,25.02
2016-11-28T16:27:59.110Z,24.98
2016-11-28T16:28:39.241Z,24.95
2016-11-28T16:29:20.026Z,24.99
2016-11-28T16:30:00.782Z,25.03
2016-11-28T16:30:42.318Z,24.98
2016-11-28T16:31:23.114Z,24.96
2016-11-28T16:32:03.874Z,24.99
2016-11-28T16:32:44.679Z,25.06
2016-11-28T16:33:25.407Z,24.93
2016-11-28T16:34:06.202Z,24.91
2016-11-28T16:34:46.938Z,24.99
2016-11-28T16:35:27.710Z,25
2016-11-28T16:36:08.729Z,24.95
2016-11-28T16:36:49.468Z,24.96
2016-11-28T16:37:30.262Z,24.9
2016-11-28T16:38:11.052Z,24.96
2016-11-28T16:38:51.826Z,25.06
2016-11-28T16:39:32.613Z,25
2016-11-28T16:40:13.423Z,25.02
2016-11-28T16:40:54.221Z,25.05
2016-11-28T16:41:35.019Z,25.02
2016-11-28T16:42:16.332Z,25.06
2016-11-28T16:42:57.216Z,25.02
2016-11-28T16:43:37.964Z,25
2016-11-28T16:44:18.717Z,24.96
2016-11-28T16:44:59.503Z,24.98
2016-11-28T16:45:40.284Z,24.95
2016-11-28T16:46:21.116Z,25.05
2016-11-28T16:47:01.913Z,25.03
2016-11-28T16:47:42.671Z,25.03
2016-11-28T16:48:23.456Z,24.93
2016-11-28T16:49:04.276Z,24.99
2016-11-28T16:49:45.052Z,25
2016-11-28T16:50:25.858Z,25.02
2016-11-28T16:51:07.616Z,25.03
2016-11-28T16:51:47.434Z,24.99
2016-11-28T16:52:29.118Z,25
2016-11-28T16:53:09.627Z,25.03
2016-11-28T16:53:49.765Z,25
2016-11-28T16:54:30.548Z,24.98
2016-11-28T16:55:11.328Z,25
2016-11-28T16:55:52.131Z,24.99
2016-11-28T16:56:32.902Z,24.98
2016-11-28T16:57:13.678Z,25.05
2016-11-28T16:57:54.482Z,25.09
2016-11-28T16:58:35.212Z,25.02
2016-11-28T16:59:16.010Z,25.02
2016-11-28T16:59:56.756Z,24.99
2016-11-28T17:00:37.526Z,25.08
2016-11-28T17:01:18.304Z,24.99
2016-11-28T17:01:59.122Z,24.96
2016-11-28T17:02:39.936Z,25
2016-11-28T17:03:20.711Z,24.95
2016-11-28T17:04:01.496Z,25
2016-11-28T17:04:42.264Z,25.06
2016-11-28T17:05:23.027Z,24.98
2016-11-28T17:06:03.789Z,25.09
2016-11-28T17:06:44.573Z,25.1
2016-11-28T17:07:25.346Z,25.05
2016-11-28T17:08:06.123Z,25.06
2016-11-28T17:08:46.881Z,24.99
2016-11-28T17:09:27.643Z,25.03
2016-11-28T17:10:08.449Z,25.02
2016-11-28T17:10:49.232Z,25.06
2016-11-28T17:11:30.001Z,25
2016-11-28T17:12:10.768Z,25
2016-11-28T17:12:51.573Z,25.05
2016-11-28T17:13:32.339Z,24.96
2016-11-28T17:14:13.706Z,24.88
2016-11-28T17:14:54.486Z,24.93
2016-11-28T17:15:35.257Z,24.85
2016-11-28T17:16:16.022Z,24.87
2016-11-28T17:16:56.808Z,24.77
2016-11-28T17:17:37.590Z,24.85
2016-11-28T17:18:18.360Z,24.76
2016-11-28T17:18:59.139Z,24.81
2016-11-28T17:19:39.955Z,24.69
2016-11-28T17:20:20.709Z,24.67
2016-11-28T17:21:01.475Z,24.67
2016-11-28T17:21:42.243Z,24.62
2016-11-28T17:22:22.999Z,24.77
2016-11-28T17:23:03.778Z,24.76
2016-11-28T17:23:44.587Z,24.76
2016-11-28T17:24:25.353Z,24.65
2016-11-28T17:25:06.124Z,24.73
2016-11-28T17:25:46.912Z,24.78
2016-11-28T17:26:27.768Z,24.64
2016-11-28T17:27:08.506Z,24.67
2016-11-28T17:27:49.292Z,24.78
2016-11-28T17:28:30.070Z,24.76
2016-11-28T17:29:10.819Z,24.76
2016-11-28T17:29:51.609Z,24.8
2016-11-28T17:30:32.416Z,24.64
2016-11-28T17:31:13.160Z,24.69
2016-11-28T17:31:53.958Z,24.6
2016-11-28T17:32:34.736Z,24.49
2016-11-28T17:33:15.482Z,24.45
2016-11-28T17:33:56.236Z,24.39
2016-11-28T17:34:37.007Z,24.28
2016-11-28T17:35:17.794Z,24.22
2016-11-28T17:35:58.591Z,24.15
2016-11-28T17:36:40.143Z,24.15
2016-11-28T17:37:20.161Z,24.15
2016-11-28T17:38:00.971Z,24.05
2016-11-28T17:38:41.789Z,24.03
2016-11-28T17:39:22.580Z,23.91
2016-11-28T17:40:03.342Z,23.94
2016-11-28T17:40:44.124Z,23.79
2016-11-28T17:41:24.879Z,23.69
2016-11-28T17:42:05.678Z,23.58
2016-11-28T17:42:46.442Z,23.55
2016-11-28T17:43:27.232Z,23.66
2016-11-28T17:44:07.974Z,23.85
2016-11-28T17:44:48.751Z,23.73
2016-11-28T17:45:29.529Z,23.63
2016-11-28T17:46:10.287Z,23.65
2016-11-28T17:46:51.054Z,23.72
2016-11-28T17:47:31.885Z,23.75
2016-11-28T17:48:12.655Z,23.69
2016-11-28T17:48:53.420Z,23.7
2016-11-28T17:49:34.225Z,23.7
2016-11-28T17:50:15.011Z,23.72
2016-11-28T17:50:56.651Z,23.65
2016-11-28T17:51:36.552Z,23.58
2016-11-28T17:52:17.301Z,23.6
2016-11-28T17:52:58.101Z,23.65
2016-11-28T17:53:38.889Z,23.55
2016-11-28T17:54:19.633Z,23.57
2016-11-28T17:55:00.398Z,23.53
2016-11-28T17:55:41.178Z,23.32
2016-11-28T17:56:21.928Z,23.25
2016-11-28T17:57:02.693Z,23.17
2016-11-28T17:57:43.466Z,23.1
2016-11-28T17:58:24.209Z,23.1
2016-11-28T17:59:05.014Z,23.02
2016-11-28T17:59:45.794Z,23.1
2016-11-28T18:00:26.566Z,23.16
2016-11-28T18:01:07.331Z,23.2
2016-11-28T18:01:48.123Z,23.23
2016-11-28T18:02:28.897Z,23.33
2016-11-28T18:03:09.646Z,23.51
2016-11-28T18:03:50.429Z,23.46
2016-11-28T18:04:31.157Z,23.54
2016-11-28T18:05:11.921Z,23.55
2016-11-28T18:05:52.705Z,23.65
2016-11-28T18:06:33.504Z,23.73
2016-11-28T18:07:14.220Z,23.75
2016-11-28T18:07:54.965Z,23.8
2016-11-28T18:08:35.751Z,23.9
2016-11-28T18:09:16.490Z,23.94
2016-11-28T18:09:57.255Z,23.98
2016-11-28T18:10:38.061Z,23.97
2016-11-28T18:11:18.811Z,23.95
2016-11-28T18:11:59.556Z,24.03